Airport ID:KVUF
Update Time (UTC):30/11/2022 03:52
Wind Speed (Knots):16
Wind Direction (Magnetic):360
Temperature (°C):2
Dew Point (°C):-4
Humidity (%):65
Altimeter (inHg):30.21
Density Altitude (Feet):
Visibility:10+
Clouds (Hundreds of feet):BKN043
Present Weather:
METAR:METAR KVUF 300350Z AUTO 01016G26KT 10SM BKN043 02/M04 A3021 RMK A01

The data displayed is for advisory purposes only and is not to be used for flight planning or operations.